sensor_id;sensor_type;location;lat;lon;timestamp;pressure;altitude;pressure_sealevel;temperature;humidity
57610;BME280;43435;46.186;9.024;2024-01-16T08:14:34;98011.06;;;5.47;51.55
57610;BME280;43435;46.186;9.024;2024-01-16T08:17:00;98028.84;;;5.53;51.68
57610;BME280;43435;46.186;9.024;2024-01-16T08:19:25;98032.31;;;5.53;51.64
57610;BME280;43435;46.186;9.024;2024-01-16T08:21:50;98037.63;;;5.53;51.32
57610;BME280;43435;46.186;9.024;2024-01-16T08:24:15;98036.69;;;5.46;51.99
57610;BME280;43435;46.186;9.024;2024-01-16T08:26:41;98042.91;;;5.39;52.55
57610;BME280;43435;46.186;9.024;2024-01-16T08:29:06;98048.81;;;5.41;53.15
57610;BME280;43435;46.186;9.024;2024-01-16T08:31:31;98059.38;;;5.41;53.05
57610;BME280;43435;46.186;9.024;2024-01-16T08:33:56;98065.50;;;5.41;52.87
57610;BME280;43435;46.186;9.024;2024-01-16T08:36:22;98069.81;;;5.42;53.25
57610;BME280;43435;46.186;9.024;2024-01-16T08:38:47;98076.47;;;5.38;54.00
57610;BME280;43435;46.186;9.024;2024-01-16T08:41:13;98082.91;;;5.36;53.84
57610;BME280;43435;46.186;9.024;2024-01-16T08:43:38;98088.66;;;5.39;53.76
57610;BME280;43435;46.186;9.024;2024-01-16T08:46:03;98086.56;;;5.35;53.88
57610;BME280;43435;46.186;9.024;2024-01-16T08:48:29;98089.56;;;5.31;54.26
57610;BME280;43435;46.186;9.024;2024-01-16T08:50:54;98090.94;;;5.27;54.02
57610;BME280;43435;46.186;9.024;2024-01-16T08:53:20;98084.91;;;5.33;53.83
57610;BME280;43435;46.186;9.024;2024-01-16T08:55:48;98097.50;;;5.31;53.75
57610;BME280;43435;46.186;9.024;2024-01-16T08:58:13;98095.47;;;5.33;53.59
57610;BME280;43435;46.186;9.024;2024-01-16T09:00:38;98099.69;;;5.43;53.37
57610;BME280;43435;46.186;9.024;2024-01-16T09:03:04;98105.63;;;5.45;53.64
57610;BME280;43435;46.186;9.024;2024-01-16T09:05:29;98109.56;;;5.49;52.75
57610;BME280;43435;46.186;9.024;2024-01-16T09:07:55;98104.19;;;5.42;53.13
57610;BME280;43435;46.186;9.024;2024-01-16T09:10:20;98107.38;;;5.38;53.27
57610;BME280;43435;46.186;9.024;2024-01-16T09:12:45;98114.66;;;5.36;53.78
57610;BME280;43435;46.186;9.024;2024-01-16T09:15:10;98113.72;;;5.28;54.36
57610;BME280;43435;46.186;9.024;2024-01-16T09:17:36;98111.34;;;5.33;54.00
57610;BME280;43435;46.186;9.024;2024-01-16T09:20:01;98111.72;;;5.30;53.93
57610;BME280;43435;46.186;9.024;2024-01-16T09:22:27;98115.47;;;5.36;53.99
57610;BME280;43435;46.186;9.024;2024-01-16T09:24:52;98116.63;;;5.33;54.44
57610;BME280;43435;46.186;9.024;2024-01-16T09:27:17;98115.81;;;5.33;54.43
57610;BME280;43435;46.186;9.024;2024-01-16T09:29:42;98119.94;;;5.36;54.65
57610;BME280;43435;46.186;9.024;2024-01-16T09:32:08;98116.63;;;5.33;54.56
57610;BME280;43435;46.186;9.024;2024-01-16T09:34:34;98115.09;;;5.39;54.46
57610;BME280;43435;46.186;9.024;2024-01-16T09:36:59;98123.16;;;5.46;54.80
57610;BME280;43435;46.186;9.024;2024-01-16T09:39:28;98130.72;;;5.49;54.30
57610;BME280;43435;46.186;9.024;2024-01-16T09:41:55;98125.44;;;5.49;54.40
57610;BME280;43435;46.186;9.024;2024-01-16T09:44:24;98125.50;;;5.55;54.04
57610;BME280;43435;46.186;9.024;2024-01-16T09:46:50;98131.25;;;5.59;53.10
57610;BME280;43435;46.186;9.024;2024-01-16T09:49:18;98129.28;;;5.61;52.67
57610;BME280;43435;46.186;9.024;2024-01-16T09:51:43;98144.44;;;5.67;52.46
57610;BME280;43435;46.186;9.024;2024-01-16T09:54:09;98145.34;;;5.74;51.93
57610;BME280;43435;46.186;9.024;2024-01-16T09:56:35;98150.56;;;5.82;51.62
57610;BME280;43435;46.186;9.024;2024-01-16T09:59:05;98151.16;;;5.85;51.62
57610;BME280;43435;46.186;9.024;2024-01-16T10:01:33;98154.72;;;5.92;51.49
57610;BME280;43435;46.186;9.024;2024-01-16T10:03:59;98155.06;;;5.97;51.46
57610;BME280;43435;46.186;9.024;2024-01-16T10:06:27;98148.41;;;6.01;51.14
57610;BME280;43435;46.186;9.024;2024-01-16T10:08:52;98152.31;;;6.05;50.74
57610;BME280;43435;46.186;9.024;2024-01-16T10:11:18;98152.78;;;6.09;50.75
57610;BME280;43435;46.186;9.024;2024-01-16T10:13:44;98153.31;;;6.19;50.89
57610;BME280;43435;46.186;9.024;2024-01-16T10:16:09;98147.56;;;6.15;51.03
57610;BME280;43435;46.186;9.024;2024-01-16T10:18:35;98145.81;;;6.22;51.14
57610;BME280;43435;46.186;9.024;2024-01-16T10:21:00;98144.06;;;6.29;50.95
57610;BME280;43435;46.186;9.024;2024-01-16T10:23:27;98145.97;;;6.36;51.60
57610;BME280;43435;46.186;9.024;2024-01-16T10:26:08;98142.03;;;6.46;50.49
57610;BME280;43435;46.186;9.024;2024-01-16T10:28:35;98137.38;;;6.48;50.25
57610;BME280;43435;46.186;9.024;2024-01-16T10:31:02;98135.19;;;6.52;49.79
57610;BME280;43435;46.186;9.024;2024-01-16T10:33:28;98137.88;;;6.59;49.23
57610;BME280;43435;46.186;9.024;2024-01-16T10:36:07;98135.88;;;6.61;49.28
57610;BME280;43435;46.186;9.024;2024-01-16T10:38:35;98136.13;;;6.66;49.49
57610;BME280;43435;46.186;9.024;2024-01-16T10:41:15;98142.31;;;6.73;49.26
57610;BME280;43435;46.186;9.024;2024-01-16T10:43:42;98134.94;;;6.68;49.16
57610;BME280;43435;46.186;9.024;2024-01-16T10:46:13;98143.03;;;6.82;48.93
57610;BME280;43435;46.186;9.024;2024-01-16T10:48:41;98135.69;;;6.84;49.07
57610;BME280;43435;46.186;9.024;2024-01-16T10:51:07;98145.94;;;6.87;49.31
57610;BME280;43435;46.186;9.024;2024-01-16T10:53:34;98131.41;;;6.83;50.00
57610;BME280;43435;46.186;9.024;2024-01-16T10:56:01;98131.47;;;6.89;50.50
57610;BME280;43435;46.186;9.024;2024-01-16T10:58:30;98130.53;;;6.97;50.88
57610;BME280;43435;46.186;9.024;2024-01-16T11:00:57;98134.63;;;6.99;50.56
57610;BME280;43435;46.186;9.024;2024-01-16T11:03:40;98128.56;;;7.06;50.75
57610;BME280;43435;46.186;9.024;2024-01-16T11:06:06;98123.09;;;7.07;50.23
57610;BME280;43435;46.186;9.024;2024-01-16T11:08:36;98122.31;;;7.13;49.76
57610;BME280;43435;46.186;9.024;2024-01-16T11:11:02;98115.22;;;7.20;49.71
57610;BME280;43435;46.186;9.024;2024-01-16T11:13:31;98112.41;;;7.22;49.44
57610;BME280;43435;46.186;9.024;2024-01-16T11:15:57;98119.78;;;7.26;49.44
57610;BME280;43435;46.186;9.024;2024-01-16T11:18:24;98122.06;;;7.30;49.36
57610;BME280;43435;46.186;9.024;2024-01-16T11:20:50;98114.53;;;7.33;49.33
57610;BME280;43435;46.186;9.024;2024-01-16T11:23:16;98116.59;;;7.38;49.29
57610;BME280;43435;46.186;9.024;2024-01-16T11:25:42;98123.16;;;7.42;49.17
57610;BME280;43435;46.186;9.024;2024-01-16T11:28:12;98118.88;;;7.41;49.60
57610;BME280;43435;46.186;9.024;2024-01-16T11:30:38;98122.41;;;7.48;48.89
57610;BME280;43435;46.186;9.024;2024-01-16T11:33:04;98115.09;;;7.57;48.81
57610;BME280;43435;46.186;9.024;2024-01-16T11:35:38;98114.91;;;7.58;48.48
57610;BME280;43435;46.186;9.024;2024-01-16T11:38:06;98117.53;;;7.58;48.40
57610;BME280;43435;46.186;9.024;2024-01-16T11:40:33;98117.97;;;7.55;48.42
57610;BME280;43435;46.186;9.024;2024-01-16T11:43:34;98118.41;;;7.59;48.15
57610;BME280;43435;46.186;9.024;2024-01-16T11:46:05;98117.00;;;7.63;48.06
57610;BME280;43435;46.186;9.024;2024-01-16T11:48:30;98113.59;;;7.75;47.76
57610;BME280;43435;46.186;9.024;2024-01-16T11:50:55;98105.88;;;7.81;47.55
57610;BME280;43435;46.186;9.024;2024-01-16T11:59:07;98092.00;;;7.85;46.78
57610;BME280;43435;46.186;9.024;2024-01-16T12:01:36;98081.00;;;7.95;46.65
57610;BME280;43435;46.186;9.024;2024-01-16T12:06:29;98056.19;;;8.16;48.11
57610;BME280;43435;46.186;9.024;2024-01-16T12:09:10;98047.66;;;8.34;50.50
57610;BME280;43435;46.186;9.024;2024-01-16T12:11:36;98052.84;;;8.49;52.66
57610;BME280;43435;46.186;9.024;2024-01-16T12:14:02;98053.47;;;8.57;52.49
57610;BME280;43435;46.186;9.024;2024-01-16T12:16:27;98057.56;;;8.60;51.10
57610;BME280;43435;46.186;9.024;2024-01-16T12:21:33;98045.72;;;8.76;54.25
57610;BME280;43435;46.186;9.024;2024-01-16T12:23:58;98043.69;;;8.78;52.70
57610;BME280;43435;46.186;9.024;2024-01-16T12:26:24;98032.66;;;8.74;50.06
57610;BME280;43435;46.186;9.024;2024-01-16T12:28:52;98034.50;;;8.80;50.61
57610;BME280;43435;46.186;9.024;2024-01-16T12:31:18;98032.03;;;8.85;48.86
57610;BME280;43435;46.186;9.024;2024-01-16T12:33:43;98023.66;;;8.88;47.03
57610;BME280;43435;46.186;9.024;2024-01-16T12:36:09;98015.28;;;8.91;47.14
57610;BME280;43435;46.186;9.024;2024-01-16T12:38:35;98012.22;;;8.88;44.54
57610;BME280;43435;46.186;9.024;2024-01-16T12:41:02;98012.63;;;8.91;45.02
57610;BME280;43435;46.186;9.024;2024-01-16T12:43:31;98009.56;;;8.88;44.59
57610;BME280;43435;46.186;9.024;2024-01-16T12:45:57;98010.56;;;8.87;44.39
57610;BME280;43435;46.186;9.024;2024-01-16T12:48:25;98004.22;;;8.88;43.66
57610;BME280;43435;46.186;9.024;2024-01-16T12:50:51;98005.22;;;8.93;43.76
57610;BME280;43435;46.186;9.024;2024-01-16T12:53:23;98004.63;;;8.98;43.46
57610;BME280;43435;46.186;9.024;2024-01-16T12:55:58;98005.88;;;9.02;43.03
57610;BME280;43435;46.186;9.024;2024-01-16T12:58:24;97998.28;;;9.06;42.89
57610;BME280;43435;46.186;9.024;2024-01-16T13:00:53;97997.44;;;9.05;42.77
57610;BME280;43435;46.186;9.024;2024-01-16T13:03:20;97999.91;;;9.07;42.65
57610;BME280;43435;46.186;9.024;2024-01-16T13:05:57;97992.13;;;9.12;42.76
57610;BME280;43435;46.186;9.024;2024-01-16T13:08:23;97987.22;;;9.15;42.55
57610;BME280;43435;46.186;9.024;2024-01-16T13:11:05;97984.78;;;9.14;42.61
57610;BME280;43435;46.186;9.024;2024-01-16T13:13:30;97984.38;;;9.10;42.77
57610;BME280;43435;46.186;9.024;2024-01-16T13:15:57;97979.66;;;9.12;42.90
57610;BME280;43435;46.186;9.024;2024-01-16T13:18:25;97975.53;;;9.16;42.96
57610;BME280;43435;46.186;9.024;2024-01-16T13:20:52;97981.91;;;9.15;43.03
57610;BME280;43435;46.186;9.024;2024-01-16T13:23:18;97983.75;;;9.22;43.08
57610;BME280;43435;46.186;9.024;2024-01-16T13:25:44;97982.47;;;9.31;42.78
57610;BME280;43435;46.186;9.024;2024-01-16T13:28:14;97969.19;;;9.24;42.97
57610;BME280;43435;46.186;9.024;2024-01-16T13:30:40;97966.34;;;9.19;42.33
57610;BME280;43435;46.186;9.024;2024-01-16T13:33:06;97965.75;;;9.10;42.42
57610;BME280;43435;46.186;9.024;2024-01-16T13:35:31;97966.16;;;9.21;42.49
57610;BME280;43435;46.186;9.024;2024-01-16T13:37:56;97961.81;;;9.26;42.40
57610;BME280;43435;46.186;9.024;2024-01-16T13:40:22;97949.97;;;9.22;42.42
57610;BME280;43435;46.186;9.024;2024-01-16T13:42:48;97956.31;;;9.21;42.29
57610;BME280;43435;46.186;9.024;2024-01-16T13:45:13;97950.38;;;9.26;42.37
57610;BME280;43435;46.186;9.024;2024-01-16T13:47:39;97943.78;;;9.35;42.59
57610;BME280;43435;46.186;9.024;2024-01-16T13:50:06;97939.25;;;9.42;42.34
57610;BME280;43435;46.186;9.024;2024-01-16T13:52:33;97939.47;;;9.47;42.33
57610;BME280;43435;46.186;9.024;2024-01-16T13:54:59;97933.50;;;9.45;42.11
57610;BME280;43435;46.186;9.024;2024-01-16T13:57:26;97945.38;;;9.49;41.94
57610;BME280;43435;46.186;9.024;2024-01-16T13:59:51;97934.31;;;9.52;41.92
57610;BME280;43435;46.186;9.024;2024-01-16T14:02:17;97936.78;;;9.54;41.69
57610;BME280;43435;46.186;9.024;2024-01-16T14:04:42;97941.25;;;9.53;41.37
57610;BME280;43435;46.186;9.024;2024-01-16T14:07:07;97938.38;;;9.61;41.35
57610;BME280;43435;46.186;9.024;2024-01-16T14:09:36;97950.41;;;9.71;41.26
57610;BME280;43435;46.186;9.024;2024-01-16T14:12:01;97946.09;;;9.76;41.14
57610;BME280;43435;46.186;9.024;2024-01-16T14:14:27;97948.28;;;9.86;41.04
57610;BME280;43435;46.186;9.024;2024-01-16T14:16:52;97940.03;;;9.94;41.11
57610;BME280;43435;46.186;9.024;2024-01-16T14:19:19;97940.66;;;9.96;41.47
57610;BME280;43435;46.186;9.024;2024-01-16T14:21:45;97940.81;;;10.08;41.28
57610;BME280;43435;46.186;9.024;2024-01-16T14:24:13;97936.06;;;10.16;41.13
57610;BME280;43435;46.186;9.024;2024-01-16T14:26:38;97936.84;;;10.24;41.04
57610;BME280;43435;46.186;9.024;2024-01-16T14:29:03;97942.34;;;10.29;40.85
57610;BME280;43435;46.186;9.024;2024-01-16T14:31:29;97937.84;;;10.29;40.76
57610;BME280;43435;46.186;9.024;2024-01-16T14:33:55;97951.31;;;10.34;40.55
57610;BME280;43435;46.186;9.024;2024-01-16T14:36:20;97947.41;;;10.37;40.32
57610;BME280;43435;46.186;9.024;2024-01-16T14:38:45;97937.56;;;10.37;40.43
57610;BME280;43435;46.186;9.024;2024-01-16T14:41:11;97935.28;;;10.41;40.84
57610;BME280;43435;46.186;9.024;2024-01-16T14:43:37;97936.72;;;10.44;40.62
57610;BME280;43435;46.186;9.024;2024-01-16T14:46:03;97942.03;;;10.44;40.70
57610;BME280;43435;46.186;9.024;2024-01-16T14:48:29;97940.41;;;10.43;40.32
57610;BME280;43435;46.186;9.024;2024-01-16T14:50:55;97941.22;;;10.43;40.64
57610;BME280;43435;46.186;9.024;2024-01-16T14:53:21;97938.28;;;10.51;40.59
57610;BME280;43435;46.186;9.024;2024-01-16T14:55:46;97939.34;;;10.50;40.33
57610;BME280;43435;46.186;9.024;2024-01-16T14:58:11;97948.13;;;10.51;40.28
57610;BME280;43435;46.186;9.024;2024-01-16T15:00:37;97944.81;;;10.55;40.51
57610;BME280;43435;46.186;9.024;2024-01-16T15:03:02;97950.56;;;10.52;40.50
57610;BME280;43435;46.186;9.024;2024-01-16T15:05:28;97949.34;;;10.55;40.73
57610;BME280;43435;46.186;9.024;2024-01-16T15:07:53;97950.53;;;10.59;40.46
57610;BME280;43435;46.186;9.024;2024-01-16T15:10:19;97948.47;;;10.61;40.62
57610;BME280;43435;46.186;9.024;2024-01-16T15:12:46;97953.81;;;10.61;41.00
57610;BME280;43435;46.186;9.024;2024-01-16T15:15:13;97946.81;;;10.60;41.07
57610;BME280;43435;46.186;9.024;2024-01-16T15:17:40;97944.38;;;10.33;39.98
57610;BME280;43435;46.186;9.024;2024-01-16T15:20:07;97943.44;;;10.14;39.65
57610;BME280;43435;46.186;9.024;2024-01-16T15:22:40;97937.84;;;9.91;39.48
57610;BME280;43435;46.186;9.024;2024-01-16T15:25:06;97946.69;;;9.78;39.45
57610;BME280;43435;46.186;9.024;2024-01-16T15:27:32;97946.91;;;9.77;39.25
57610;BME280;43435;46.186;9.024;2024-01-16T15:29:57;97962.94;;;9.63;39.44
57610;BME280;43435;46.186;9.024;2024-01-16T15:32:24;97957.22;;;9.60;39.44
57610;BME280;43435;46.186;9.024;2024-01-16T15:34:50;97957.22;;;9.53;39.64
57610;BME280;43435;46.186;9.024;2024-01-16T15:37:16;97963.81;;;9.44;39.72
57610;BME280;43435;46.186;9.024;2024-01-16T15:39:41;97964.25;;;9.28;40.13
57610;BME280;43435;46.186;9.024;2024-01-16T15:42:06;97964.25;;;9.28;40.23
57610;BME280;43435;46.186;9.024;2024-01-16T15:44:32;97976.34;;;9.24;40.69
57610;BME280;43435;46.186;9.024;2024-01-16T15:47:02;97982.53;;;9.17;40.56
57610;BME280;43435;46.186;9.024;2024-01-16T15:49:28;97982.94;;;9.14;40.85
57610;BME280;43435;46.186;9.024;2024-01-16T15:51:54;97981.09;;;9.02;41.13
57610;BME280;43435;46.186;9.024;2024-01-16T15:54:21;97997.88;;;9.02;41.45
57610;BME280;43435;46.186;9.024;2024-01-16T15:56:46;97997.06;;;8.95;41.63
57610;BME280;43435;46.186;9.024;2024-01-16T15:59:12;98007.69;;;8.88;41.31
57610;BME280;43435;46.186;9.024;2024-01-16T16:01:38;98010.56;;;8.80;41.44
57610;BME280;43435;46.186;9.024;2024-01-16T16:04:04;98006.25;;;8.73;41.52
57610;BME280;43435;46.186;9.024;2024-01-16T16:06:33;98017.09;;;8.64;41.54
57610;BME280;43435;46.186;9.024;2024-01-16T16:08:59;98004.19;;;8.61;42.09
57610;BME280;43435;46.186;9.024;2024-01-16T16:11:25;98004.81;;;8.57;42.72
57610;BME280;43435;46.186;9.024;2024-01-16T16:13:51;98002.75;;;8.45;43.31
57610;BME280;43435;46.186;9.024;2024-01-16T16:16:16;98009.91;;;8.45;43.22
57610;BME280;43435;46.186;9.024;2024-01-16T16:18:42;98007.66;;;8.42;43.37
57610;BME280;43435;46.186;9.024;2024-01-16T16:21:07;98001.69;;;8.33;43.54
57610;BME280;43435;46.186;9.024;2024-01-16T16:23:32;97997.81;;;8.36;43.90
57610;BME280;43435;46.186;9.024;2024-01-16T16:25:57;98009.44;;;8.28;44.67
57610;BME280;43435;46.186;9.024;2024-01-16T16:28:23;98004.72;;;8.23;44.48
57610;BME280;43435;46.186;9.024;2024-01-16T16:30:48;98014.94;;;8.20;44.61
57610;BME280;43435;46.186;9.024;2024-01-16T16:33:13;98030.81;;;8.00;48.70
57610;BME280;43435;46.186;9.024;2024-01-16T16:35:39;98040.16;;;7.48;48.30
57610;BME280;43435;46.186;9.024;2024-01-16T16:38:04;98029.63;;;8.16;47.17
57610;BME280;43435;46.186;9.024;2024-01-16T16:40:30;98038.50;;;8.43;47.31
57610;BME280;43435;46.186;9.024;2024-01-16T16:42:55;98052.59;;;8.37;46.45
57610;BME280;43435;46.186;9.024;2024-01-16T16:45:20;98055.00;;;8.32;45.48
57610;BME280;43435;46.186;9.024;2024-01-16T16:47:46;98056.59;;;8.19;45.47
57610;BME280;43435;46.186;9.024;2024-01-16T16:50:11;98060.25;;;8.12;44.52
57610;BME280;43435;46.186;9.024;2024-01-16T16:52:36;98053.28;;;8.04;44.61
57610;BME280;43435;46.186;9.024;2024-01-16T16:55:02;98054.09;;;8.05;45.10
57610;BME280;43435;46.186;9.024;2024-01-16T16:57:31;98047.94;;;7.97;44.90
57610;BME280;43435;46.186;9.024;2024-01-16T16:59:57;98059.16;;;7.93;44.79
57610;BME280;43435;46.186;9.024;2024-01-16T17:02:23;98058.91;;;7.88;44.69
57610;BME280;43435;46.186;9.024;2024-01-16T17:04:49;98071.16;;;7.82;45.10
57610;BME280;43435;46.186;9.024;2024-01-16T17:07:14;98065.44;;;7.79;45.07
57610;BME280;43435;46.186;9.024;2024-01-16T17:09:40;98065.63;;;7.77;44.97
57610;BME280;43435;46.186;9.024;2024-01-16T17:12:07;98081.25;;;7.65;44.86
57610;BME280;43435;46.186;9.024;2024-01-16T17:14:32;98079.03;;;7.62;44.92
57610;BME280;43435;46.186;9.024;2024-01-16T17:16:58;98076.75;;;7.59;45.03
57610;BME280;43435;46.186;9.024;2024-01-16T17:19:23;98091.00;;;7.58;45.45
57610;BME280;43435;46.186;9.024;2024-01-16T17:21:48;98088.72;;;7.48;45.50
57610;BME280;43435;46.186;9.024;2024-01-16T17:24:13;98077.84;;;7.37;45.56
57610;BME280;43435;46.186;9.024;2024-01-16T17:26:39;98082.56;;;7.41;45.77
57610;BME280;43435;46.186;9.024;2024-01-16T17:29:04;98094.56;;;7.37;45.83
57610;BME280;43435;46.186;9.024;2024-01-16T17:31:30;98097.00;;;7.39;45.64
57610;BME280;43435;46.186;9.024;2024-01-16T17:33:55;98106.00;;;7.38;45.62
57610;BME280;43435;46.186;9.024;2024-01-16T17:36:21;98106.00;;;7.38;45.75
57610;BME280;43435;46.186;9.024;2024-01-16T17:38:46;98106.22;;;7.43;45.77
